sensor_id;sensor_type;location;lat;lon;timestamp;temperature;humidity
4637;DHT22;2331;48.806;9.140;2023-03-13T00:00:26;10.80;1.00
4637;DHT22;2331;48.806;9.140;2023-03-13T00:02:53;10.80;1.00
4637;DHT22;2331;48.806;9.140;2023-03-13T00:05:20;10.80;1.00
4637;DHT22;2331;48.806;9.140;2023-03-13T00:07:47;10.80;1.00
4637;DHT22;2331;48.806;9.140;2023-03-13T00:10:13;10.80;1.00
4637;DHT22;2331;48.806;9.140;2023-03-13T00:12:40;10.80;1.00
4637;DHT22;2331;48.806;9.140;2023-03-13T00:15:08;10.80;1.00
4637;DHT22;2331;48.806;9.140;2023-03-13T00:17:36;10.80;1.00
4637;DHT22;2331;48.806;9.140;2023-03-13T00:20:03;10.80;1.00
4637;DHT22;2331;48.806;9.140;2023-03-13T00:22:30;10.80;1.00
4637;DHT22;2331;48.806;9.140;2023-03-13T00:24:56;10.80;1.00
4637;DHT22;2331;48.806;9.140;2023-03-13T00:27:23;10.80;1.00
4637;DHT22;2331;48.806;9.140;2023-03-13T00:29:50;10.80;1.00
4637;DHT22;2331;48.806;9.140;2023-03-13T00:32:16;10.80;1.00
4637;DHT22;2331;48.806;9.140;2023-03-13T00:34:44;10.80;1.00
4637;DHT22;2331;48.806;9.140;2023-03-13T00:37:11;10.80;1.00
4637;DHT22;2331;48.806;9.140;2023-03-13T00:39:38;10.80;1.00
4637;DHT22;2331;48.806;9.140;2023-03-13T00:42:05;10.80;1.00
4637;DHT22;2331;48.806;9.140;2023-03-13T00:44:32;10.80;1.00
4637;DHT22;2331;48.806;9.140;2023-03-13T00:46:58;10.80;1.00
4637;DHT22;2331;48.806;9.140;2023-03-13T00:49:25;10.80;1.00
4637;DHT22;2331;48.806;9.140;2023-03-13T00:51:53;10.80;1.00
4637;DHT22;2331;48.806;9.140;2023-03-13T00:54:20;10.80;1.00
4637;DHT22;2331;48.806;9.140;2023-03-13T00:56:46;10.80;1.00
4637;DHT22;2331;48.806;9.140;2023-03-13T00:59:13;10.80;1.00
4637;DHT22;2331;48.806;9.140;2023-03-13T01:01:40;10.70;1.00
4637;DHT22;2331;48.806;9.140;2023-03-13T01:04:09;10.80;1.00
4637;DHT22;2331;48.806;9.140;2023-03-13T01:06:37;10.80;1.00
4637;DHT22;2331;48.806;9.140;2023-03-13T01:09:12;10.80;1.00
4637;DHT22;2331;48.806;9.140;2023-03-13T01:11:41;10.90;1.00
4637;DHT22;2331;48.806;9.140;2023-03-13T01:14:10;10.90;1.00
4637;DHT22;2331;48.806;9.140;2023-03-13T01:16:38;10.90;1.00
4637;DHT22;2331;48.806;9.140;2023-03-13T01:19:07;10.90;1.00
4637;DHT22;2331;48.806;9.140;2023-03-13T01:21:34;10.90;1.00
4637;DHT22;2331;48.806;9.140;2023-03-13T01:24:01;10.90;1.00
4637;DHT22;2331;48.806;9.140;2023-03-13T01:26:30;11.00;1.00
4637;DHT22;2331;48.806;9.140;2023-03-13T01:28:57;11.00;1.00
4637;DHT22;2331;48.806;9.140;2023-03-13T01:31:25;11.10;1.00
4637;DHT22;2331;48.806;9.140;2023-03-13T01:33:54;11.00;1.00
4637;DHT22;2331;48.806;9.140;2023-03-13T01:36:21;11.00;1.00
4637;DHT22;2331;48.806;9.140;2023-03-13T01:38:49;11.10;1.00
4637;DHT22;2331;48.806;9.140;2023-03-13T01:41:17;11.10;1.00
4637;DHT22;2331;48.806;9.140;2023-03-13T01:43:46;11.10;1.00
4637;DHT22;2331;48.806;9.140;2023-03-13T01:46:13;11.00;1.00
4637;DHT22;2331;48.806;9.140;2023-03-13T01:48:46;11.00;1.00
4637;DHT22;2331;48.806;9.140;2023-03-13T01:51:19;11.00;1.00
4637;DHT22;2331;48.806;9.140;2023-03-13T01:53:50;11.00;1.00
4637;DHT22;2331;48.806;9.140;2023-03-13T01:56:20;11.00;1.00
4637;DHT22;2331;48.806;9.140;2023-03-13T01:58:50;11.00;1.00
4637;DHT22;2331;48.806;9.140;2023-03-13T02:01:19;11.10;1.00
4637;DHT22;2331;48.806;9.140;2023-03-13T02:03:47;11.10;1.00
4637;DHT22;2331;48.806;9.140;2023-03-13T02:06:14;11.10;1.00
4637;DHT22;2331;48.806;9.140;2023-03-13T02:08:44;11.10;1.00
4637;DHT22;2331;48.806;9.140;2023-03-13T02:11:21;11.10;1.00
4637;DHT22;2331;48.806;9.140;2023-03-13T02:13:53;11.10;1.00
4637;DHT22;2331;48.806;9.140;2023-03-13T02:16:21;11.10;1.00
4637;DHT22;2331;48.806;9.140;2023-03-13T02:18:48;11.20;1.00
4637;DHT22;2331;48.806;9.140;2023-03-13T02:21:20;11.10;1.00
4637;DHT22;2331;48.806;9.140;2023-03-13T02:23:52;11.10;1.00
4637;DHT22;2331;48.806;9.140;2023-03-13T02:26:24;11.20;1.00
4637;DHT22;2331;48.806;9.140;2023-03-13T02:28:50;11.10;1.00
4637;DHT22;2331;48.806;9.140;2023-03-13T02:31:17;11.10;1.00
4637;DHT22;2331;48.806;9.140;2023-03-13T02:33:44;11.10;1.00
4637;DHT22;2331;48.806;9.140;2023-03-13T02:36:11;11.10;1.00
4637;DHT22;2331;48.806;9.140;2023-03-13T02:38:44;11.00;1.00
4637;DHT22;2331;48.806;9.140;2023-03-13T02:41:14;11.10;1.00
4637;DHT22;2331;48.806;9.140;2023-03-13T02:43:42;11.00;1.00
4637;DHT22;2331;48.806;9.140;2023-03-13T02:46:11;11.00;1.00
4637;DHT22;2331;48.806;9.140;2023-03-13T02:48:39;11.10;1.00
4637;DHT22;2331;48.806;9.140;2023-03-13T02:51:11;11.20;1.00
4637;DHT22;2331;48.806;9.140;2023-03-13T02:53:40;11.10;1.00
4637;DHT22;2331;48.806;9.140;2023-03-13T02:56:07;11.10;1.00
4637;DHT22;2331;48.806;9.140;2023-03-13T02:58:38;11.10;1.00
4637;DHT22;2331;48.806;9.140;2023-03-13T03:01:06;11.10;1.00
4637;DHT22;2331;48.806;9.140;2023-03-13T03:03:33;11.10;1.00
4637;DHT22;2331;48.806;9.140;2023-03-13T03:06:01;11.10;1.00
4637;DHT22;2331;48.806;9.140;2023-03-13T03:08:28;11.10;1.00
4637;DHT22;2331;48.806;9.140;2023-03-13T03:10:55;11.10;1.00
4637;DHT22;2331;48.806;9.140;2023-03-13T03:13:21;11.20;1.00
4637;DHT22;2331;48.806;9.140;2023-03-13T03:15:48;11.20;1.00
4637;DHT22;2331;48.806;9.140;2023-03-13T03:18:16;11.30;1.00
4637;DHT22;2331;48.806;9.140;2023-03-13T03:20:43;11.30;1.00
4637;DHT22;2331;48.806;9.140;2023-03-13T03:23:09;11.30;1.00
4637;DHT22;2331;48.806;9.140;2023-03-13T03:25:36;11.40;1.00
4637;DHT22;2331;48.806;9.140;2023-03-13T03:28:03;11.40;1.00
4637;DHT22;2331;48.806;9.140;2023-03-13T03:30:30;11.40;1.00
4637;DHT22;2331;48.806;9.140;2023-03-13T03:32:56;11.40;1.00
4637;DHT22;2331;48.806;9.140;2023-03-13T03:35:24;11.40;1.00
4637;DHT22;2331;48.806;9.140;2023-03-13T03:37:51;11.50;1.00
4637;DHT22;2331;48.806;9.140;2023-03-13T03:40:18;11.50;1.00
4637;DHT22;2331;48.806;9.140;2023-03-13T03:42:45;11.50;1.00
4637;DHT22;2331;48.806;9.140;2023-03-13T03:45:12;11.60;1.00
4637;DHT22;2331;48.806;9.140;2023-03-13T03:47:39;11.50;1.00
4637;DHT22;2331;48.806;9.140;2023-03-13T03:50:06;11.60;1.00
4637;DHT22;2331;48.806;9.140;2023-03-13T03:52:36;11.60;1.00
4637;DHT22;2331;48.806;9.140;2023-03-13T03:55:04;11.60;1.00
4637;DHT22;2331;48.806;9.140;2023-03-13T03:57:31;11.60;1.00
4637;DHT22;2331;48.806;9.140;2023-03-13T03:59:57;11.60;1.00
4637;DHT22;2331;48.806;9.140;2023-03-13T04:02:24;11.50;1.00
4637;DHT22;2331;48.806;9.140;2023-03-13T04:04:51;11.50;1.00
4637;DHT22;2331;48.806;9.140;2023-03-13T04:07:17;11.50;1.00
4637;DHT22;2331;48.806;9.140;2023-03-13T04:09:45;11.60;1.00
4637;DHT22;2331;48.806;9.140;2023-03-13T04:12:12;11.70;1.00
4637;DHT22;2331;48.806;9.140;2023-03-13T04:14:39;11.70;1.00
4637;DHT22;2331;48.806;9.140;2023-03-13T04:17:05;11.70;1.00
4637;DHT22;2331;48.806;9.140;2023-03-13T04:19:32;11.80;1.00
4637;DHT22;2331;48.806;9.140;2023-03-13T04:21:59;11.90;1.00
4637;DHT22;2331;48.806;9.140;2023-03-13T04:24:25;12.00;1.00
4637;DHT22;2331;48.806;9.140;2023-03-13T04:26:53;12.10;1.00
4637;DHT22;2331;48.806;9.140;2023-03-13T04:29:20;12.20;1.00
4637;DHT22;2331;48.806;9.140;2023-03-13T04:31:47;12.30;1.00
4637;DHT22;2331;48.806;9.140;2023-03-13T04:34:13;12.40;1.00
4637;DHT22;2331;48.806;9.140;2023-03-13T04:36:40;12.40;1.00
4637;DHT22;2331;48.806;9.140;2023-03-13T04:39:07;12.50;1.00
4637;DHT22;2331;48.806;9.140;2023-03-13T04:41:33;12.50;1.00
4637;DHT22;2331;48.806;9.140;2023-03-13T04:44:01;12.60;1.00
4637;DHT22;2331;48.806;9.140;2023-03-13T04:46:28;12.60;1.00
4637;DHT22;2331;48.806;9.140;2023-03-13T04:48:55;12.60;1.00
4637;DHT22;2331;48.806;9.140;2023-03-13T04:51:21;12.70;1.00
4637;DHT22;2331;48.806;9.140;2023-03-13T04:53:48;12.70;1.00
4637;DHT22;2331;48.806;9.140;2023-03-13T04:56:20;12.80;1.00
4637;DHT22;2331;48.806;9.140;2023-03-13T04:58:47;12.80;1.00
4637;DHT22;2331;48.806;9.140;2023-03-13T05:01:15;12.90;1.00
4637;DHT22;2331;48.806;9.140;2023-03-13T05:03:42;12.90;1.00
4637;DHT22;2331;48.806;9.140;2023-03-13T05:06:08;12.90;1.00
4637;DHT22;2331;48.806;9.140;2023-03-13T05:08:35;13.00;1.00
4637;DHT22;2331;48.806;9.140;2023-03-13T05:11:03;13.00;1.00
4637;DHT22;2331;48.806;9.140;2023-03-13T05:13:29;13.00;1.00
4637;DHT22;2331;48.806;9.140;2023-03-13T05:15:56;13.10;1.00
4637;DHT22;2331;48.806;9.140;2023-03-13T05:18:24;13.10;1.00
4637;DHT22;2331;48.806;9.140;2023-03-13T05:20:51;13.10;1.00
4637;DHT22;2331;48.806;9.140;2023-03-13T05:23:17;13.20;1.00
4637;DHT22;2331;48.806;9.140;2023-03-13T05:25:44;13.20;1.00
4637;DHT22;2331;48.806;9.140;2023-03-13T05:28:11;13.20;1.00
4637;DHT22;2331;48.806;9.140;2023-03-13T05:30:38;13.10;1.00
4637;DHT22;2331;48.806;9.140;2023-03-13T05:33:04;13.20;1.00
4637;DHT22;2331;48.806;9.140;2023-03-13T05:35:32;13.20;1.00
4637;DHT22;2331;48.806;9.140;2023-03-13T05:37:59;13.20;1.00
4637;DHT22;2331;48.806;9.140;2023-03-13T05:40:26;13.20;1.00
4637;DHT22;2331;48.806;9.140;2023-03-13T05:42:52;13.30;1.00
4637;DHT22;2331;48.806;9.140;2023-03-13T05:45:19;13.20;1.00
4637;DHT22;2331;48.806;9.140;2023-03-13T05:47:46;13.20;1.00
4637;DHT22;2331;48.806;9.140;2023-03-13T05:50:12;13.30;1.00
4637;DHT22;2331;48.806;9.140;2023-03-13T05:52:40;13.30;1.00
4637;DHT22;2331;48.806;9.140;2023-03-13T05:55:07;13.30;1.00
4637;DHT22;2331;48.806;9.140;2023-03-13T05:57:34;13.40;1.00
4637;DHT22;2331;48.806;9.140;2023-03-13T06:00:01;13.30;1.00
4637;DHT22;2331;48.806;9.140;2023-03-13T06:02:28;13.40;1.00
4637;DHT22;2331;48.806;9.140;2023-03-13T06:04:54;13.40;1.00
4637;DHT22;2331;48.806;9.140;2023-03-13T06:07:22;13.30;1.00
4637;DHT22;2331;48.806;9.140;2023-03-13T06:09:50;13.30;1.00
4637;DHT22;2331;48.806;9.140;2023-03-13T06:12:17;13.40;1.00
4637;DHT22;2331;48.806;9.140;2023-03-13T06:14:44;13.40;1.00
4637;DHT22;2331;48.806;9.140;2023-03-13T06:17:10;13.50;1.00
4637;DHT22;2331;48.806;9.140;2023-03-13T06:19:37;13.50;1.00
4637;DHT22;2331;48.806;9.140;2023-03-13T06:22:04;13.50;1.00
4637;DHT22;2331;48.806;9.140;2023-03-13T06:24:31;13.50;1.00
4637;DHT22;2331;48.806;9.140;2023-03-13T06:26:59;13.60;1.00
4637;DHT22;2331;48.806;9.140;2023-03-13T06:29:26;13.60;1.00
4637;DHT22;2331;48.806;9.140;2023-03-13T06:31:53;13.60;1.00
4637;DHT22;2331;48.806;9.140;2023-03-13T06:34:19;13.60;1.00
4637;DHT22;2331;48.806;9.140;2023-03-13T06:36:46;13.70;1.00
4637;DHT22;2331;48.806;9.140;2023-03-13T06:39:13;13.70;1.00
4637;DHT22;2331;48.806;9.140;2023-03-13T06:41:39;13.70;1.00
4637;DHT22;2331;48.806;9.140;2023-03-13T06:44:08;13.70;1.00
4637;DHT22;2331;48.806;9.140;2023-03-13T06:46:34;13.70;1.00
4637;DHT22;2331;48.806;9.140;2023-03-13T06:49:01;13.80;1.00
4637;DHT22;2331;48.806;9.140;2023-03-13T06:51:30;13.80;1.00
4637;DHT22;2331;48.806;9.140;2023-03-13T06:53:57;13.80;1.00
4637;DHT22;2331;48.806;9.140;2023-03-13T06:56:24;13.80;1.00
4637;DHT22;2331;48.806;9.140;2023-03-13T06:58:51;13.80;1.00
4637;DHT22;2331;48.806;9.140;2023-03-13T07:01:19;13.90;1.00
4637;DHT22;2331;48.806;9.140;2023-03-13T07:03:46;14.00;1.00
4637;DHT22;2331;48.806;9.140;2023-03-13T07:06:13;14.10;1.00
4637;DHT22;2331;48.806;9.140;2023-03-13T07:08:40;14.10;1.00
4637;DHT22;2331;48.806;9.140;2023-03-13T07:11:09;14.00;1.00
4637;DHT22;2331;48.806;9.140;2023-03-13T07:13:37;14.10;1.00
4637;DHT22;2331;48.806;9.140;2023-03-13T07:16:05;14.20;1.00
4637;DHT22;2331;48.806;9.140;2023-03-13T07:18:34;14.20;1.00
4637;DHT22;2331;48.806;9.140;2023-03-13T07:21:02;14.20;1.00
4637;DHT22;2331;48.806;9.140;2023-03-13T07:23:31;14.10;1.00
4637;DHT22;2331;48.806;9.140;2023-03-13T07:26:00;14.10;1.00
4637;DHT22;2331;48.806;9.140;2023-03-13T07:28:28;14.00;1.00
4637;DHT22;2331;48.806;9.140;2023-03-13T07:31:02;14.10;1.00
4637;DHT22;2331;48.806;9.140;2023-03-13T07:33:29;14.10;1.00
4637;DHT22;2331;48.806;9.140;2023-03-13T07:35:57;14.00;1.00
4637;DHT22;2331;48.806;9.140;2023-03-13T07:38:24;14.20;1.00
4637;DHT22;2331;48.806;9.140;2023-03-13T07:40:52;14.20;1.00
4637;DHT22;2331;48.806;9.140;2023-03-13T07:43:19;14.10;1.00
4637;DHT22;2331;48.806;9.140;2023-03-13T07:45:53;14.10;1.00
4637;DHT22;2331;48.806;9.140;2023-03-13T07:48:23;14.20;1.00
4637;DHT22;2331;48.806;9.140;2023-03-13T07:50:50;14.10;1.00
4637;DHT22;2331;48.806;9.140;2023-03-13T07:53:18;14.20;1.00
4637;DHT22;2331;48.806;9.140;2023-03-13T07:55:57;14.10;1.00
4637;DHT22;2331;48.806;9.140;2023-03-13T07:58:25;14.20;1.00
4637;DHT22;2331;48.806;9.140;2023-03-13T08:00:53;14.20;1.00
4637;DHT22;2331;48.806;9.140;2023-03-13T08:03:20;14.30;1.00
4637;DHT22;2331;48.806;9.140;2023-03-13T08:05:46;14.30;1.00
4637;DHT22;2331;48.806;9.140;2023-03-13T08:08:13;14.30;1.00
4637;DHT22;2331;48.806;9.140;2023-03-13T08:10:41;14.30;1.00
4637;DHT22;2331;48.806;9.140;2023-03-13T08:13:09;14.40;1.00
4637;DHT22;2331;48.806;9.140;2023-03-13T08:15:36;14.50;1.00
4637;DHT22;2331;48.806;9.140;2023-03-13T08:18:03;14.60;1.00
4637;DHT22;2331;48.806;9.140;2023-03-13T08:20:30;14.70;1.00
4637;DHT22;2331;48.806;9.140;2023-03-13T08:22:56;14.80;1.00
4637;DHT22;2331;48.806;9.140;2023-03-13T08:25:23;14.90;1.00
4637;DHT22;2331;48.806;9.140;2023-03-13T08:27:51;14.90;1.00
4637;DHT22;2331;48.806;9.140;2023-03-13T08:30:18;15.00;1.00
4637;DHT22;2331;48.806;9.140;2023-03-13T08:32:45;14.90;1.00
4637;DHT22;2331;48.806;9.140;2023-03-13T08:35:12;15.00;1.00
4637;DHT22;2331;48.806;9.140;2023-03-13T08:37:38;15.00;1.00
4637;DHT22;2331;48.806;9.140;2023-03-13T08:40:06;15.00;1.00
4637;DHT22;2331;48.806;9.140;2023-03-13T08:42:36;15.10;1.00
4637;DHT22;2331;48.806;9.140;2023-03-13T08:45:05;15.20;1.00
4637;DHT22;2331;48.806;9.140;2023-03-13T08:47:32;15.10;1.00
4637;DHT22;2331;48.806;9.140;2023-03-13T08:49:59;15.10;1.00
4637;DHT22;2331;48.806;9.140;2023-03-13T08:52:26;15.20;1.00
4637;DHT22;2331;48.806;9.140;2023-03-13T08:54:52;15.20;1.00
4637;DHT22;2331;48.806;9.140;2023-03-13T08:57:19;15.20;1.00
4637;DHT22;2331;48.806;9.140;2023-03-13T08:59:46;15.20;1.00
4637;DHT22;2331;48.806;9.140;2023-03-13T09:02:15;15.30;1.00
4637;DHT22;2331;48.806;9.140;2023-03-13T09:04:45;15.30;1.00
4637;DHT22;2331;48.806;9.140;2023-03-13T09:07:12;15.30;1.00
4637;DHT22;2331;48.806;9.140;2023-03-13T09:09:39;15.30;1.00
4637;DHT22;2331;48.806;9.140;2023-03-13T09:12:06;15.40;1.00
4637;DHT22;2331;48.806;9.140;2023-03-13T09:14:33;15.40;1.00
4637;DHT22;2331;48.806;9.140;2023-03-13T09:17:00;15.60;1.00
4637;DHT22;2331;48.806;9.140;2023-03-13T09:19:29;15.50;1.00
4637;DHT22;2331;48.806;9.140;2023-03-13T09:21:57;15.60;1.00
4637;DHT22;2331;48.806;9.140;2023-03-13T09:24:24;15.50;1.00
4637;DHT22;2331;48.806;9.140;2023-03-13T09:26:51;15.60;1.00
4637;DHT22;2331;48.806;9.140;2023-03-13T09:29:17;15.70;1.00
4637;DHT22;2331;48.806;9.140;2023-03-13T09:31:44;15.80;1.00
4637;DHT22;2331;48.806;9.140;2023-03-13T09:34:11;15.70;1.00
4637;DHT22;2331;48.806;9.140;2023-03-13T09:36:39;15.80;1.00
4637;DHT22;2331;48.806;9.140;2023-03-13T09:39:05;15.80;1.00
4637;DHT22;2331;48.806;9.140;2023-03-13T09:41:35;15.90;1.00
4637;DHT22;2331;48.806;9.140;2023-03-13T09:44:09;15.80;1.00
4637;DHT22;2331;48.806;9.140;2023-03-13T09:46:40;15.80;1.00
4637;DHT22;2331;48.806;9.140;2023-03-13T09:49:13;15.90;1.00
4637;DHT22;2331;48.806;9.140;2023-03-13T09:51:44;15.90;1.00
4637;DHT22;2331;48.806;9.140;2023-03-13T09:54:21;15.90;1.00
4637;DHT22;2331;48.806;9.140;2023-03-13T09:56:52;16.00;1.00
4637;DHT22;2331;48.806;9.140;2023-03-13T09:59:26;16.20;1.00
4637;DHT22;2331;48.806;9.140;2023-03-13T10:01:57;16.40;1.00
4637;DHT22;2331;48.806;9.140;2023-03-13T10:04:29;16.50;1.00
4637;DHT22;2331;48.806;9.140;2023-03-13T10:06:59;16.50;1.00
4637;DHT22;2331;48.806;9.140;2023-03-13T10:09:29;16.60;1.00
4637;DHT22;2331;48.806;9.140;2023-03-13T10:12:03;16.70;1.00
4637;DHT22;2331;48.806;9.140;2023-03-13T10:14:38;16.70;1.00
4637;DHT22;2331;48.806;9.140;2023-03-13T10:17:13;16.70;1.00
4637;DHT22;2331;48.806;9.140;2023-03-13T10:19:41;16.80;1.00
4637;DHT22;2331;48.806;9.140;2023-03-13T10:22:14;17.00;1.00
4637;DHT22;2331;48.806;9.140;2023-03-13T10:24:45;17.20;1.00
4637;DHT22;2331;48.806;9.140;2023-03-13T10:27:15;17.20;1.00
4637;DHT22;2331;48.806;9.140;2023-03-13T10:29:41;17.40;1.00
4637;DHT22;2331;48.806;9.140;2023-03-13T10:32:12;17.50;1.00
4637;DHT22;2331;48.806;9.140;2023-03-13T10:34:52;17.60;1.00
4637;DHT22;2331;48.806;9.140;2023-03-13T10:37:23;17.60;1.00
4637;DHT22;2331;48.806;9.140;2023-03-13T10:39:50;17.70;1.00
4637;DHT22;2331;48.806;9.140;2023-03-13T10:42:21;17.80;1.00
4637;DHT22;2331;48.806;9.140;2023-03-13T10:44:55;17.80;1.00
4637;DHT22;2331;48.806;9.140;2023-03-13T10:47:22;17.80;1.00
4637;DHT22;2331;48.806;9.140;2023-03-13T10:49:51;17.80;1.00
4637;DHT22;2331;48.806;9.140;2023-03-13T10:52:32;17.90;1.00
4637;DHT22;2331;48.806;9.140;2023-03-13T10:55:00;18.00;1.00
4637;DHT22;2331;48.806;9.140;2023-03-13T10:57:29;18.00;1.00
4637;DHT22;2331;48.806;9.140;2023-03-13T10:59:57;18.20;1.00
4637;DHT22;2331;48.806;9.140;2023-03-13T11:02:27;18.40;1.00
4637;DHT22;2331;48.806;9.140;2023-03-13T11:04:58;18.50;1.00
4637;DHT22;2331;48.806;9.140;2023-03-13T11:07:29;18.70;1.00
4637;DHT22;2331;48.806;9.140;2023-03-13T11:09:58;18.70;1.00
4637;DHT22;2331;48.806;9.140;2023-03-13T11:12:26;18.80;1.00
4637;DHT22;2331;48.806;9.140;2023-03-13T11:14:57;18.70;1.00
4637;DHT22;2331;48.806;9.140;2023-03-13T11:17:31;18.60;1.00
4637;DHT22;2331;48.806;9.140;2023-03-13T11:20:06;18.70;1.00
4637;DHT22;2331;48.806;9.140;2023-03-13T11:22:42;18.80;1.00
4637;DHT22;2331;48.806;9.140;2023-03-13T11:25:19;19.00;1.00
4637;DHT22;2331;48.806;9.140;2023-03-13T11:27:57;19.20;1.00
4637;DHT22;2331;48.806;9.140;2023-03-13T11:30:46;19.20;1.00
4637;DHT22;2331;48.806;9.140;2023-03-13T11:33:24;19.30;1.00
4637;DHT22;2331;48.806;9.140;2023-03-13T11:35:58;19.50;1.00
4637;DHT22;2331;48.806;9.140;2023-03-13T11:38:32;19.70;1.00
4637;DHT22;2331;48.806;9.140;2023-03-13T11:41:08;19.70;1.00
4637;DHT22;2331;48.806;9.140;2023-03-13T11:43:49;19.70;1.00
4637;DHT22;2331;48.806;9.140;2023-03-13T11:46:26;19.90;1.00
4637;DHT22;2331;48.806;9.140;2023-03-13T11:49:19;20.00;1.00
4637;DHT22;2331;48.806;9.140;2023-03-13T11:51:55;20.00;1.00
4637;DHT22;2331;48.806;9.140;2023-03-13T11:54:56;20.10;1.00
4637;DHT22;2331;48.806;9.140;2023-03-13T11:57:31;19.90;1.00
4637;DHT22;2331;48.806;9.140;2023-03-13T12:00:16;20.10;1.00
4637;DHT22;2331;48.806;9.140;2023-03-13T12:02:47;20.30;1.00
4637;DHT22;2331;48.806;9.140;2023-03-13T12:05:18;20.50;1.00
4637;DHT22;2331;48.806;9.140;2023-03-13T12:07:50;20.60;1.00
4637;DHT22;2331;48.806;9.140;2023-03-13T12:10:24;20.50;1.00
4637;DHT22;2331;48.806;9.140;2023-03-13T12:12:58;20.60;1.00
4637;DHT22;2331;48.806;9.140;2023-03-13T12:15:29;20.50;1.00
4637;DHT22;2331;48.806;9.140;2023-03-13T12:18:01;20.50;1.00
4637;DHT22;2331;48.806;9.140;2023-03-13T12:20:33;20.30;1.00
4637;DHT22;2331;48.806;9.140;2023-03-13T12:23:13;20.40;1.00
4637;DHT22;2331;48.806;9.140;2023-03-13T12:25:46;20.40;1.00
4637;DHT22;2331;48.806;9.140;2023-03-13T12:28:22;20.50;1.00
4637;DHT22;2331;48.806;9.140;2023-03-13T12:30:55;20.60;1.00
4637;DHT22;2331;48.806;9.140;2023-03-13T12:33:27;20.60;1.00
4637;DHT22;2331;48.806;9.140;2023-03-13T12:36:01;20.80;1.00
4637;DHT22;2331;48.806;9.140;2023-03-13T12:38:33;20.90;1.00
4637;DHT22;2331;48.806;9.140;2023-03-13T12:41:11;20.80;1.00
4637;DHT22;2331;48.806;9.140;2023-03-13T12:43:42;20.80;1.00
4637;DHT22;2331;48.806;9.140;2023-03-13T12:46:41;20.90;1.00
4637;DHT22;2331;48.806;9.140;2023-03-13T12:55:46;21.20;1.00
4637;DHT22;2331;48.806;9.140;2023-03-13T12:58:25;21.20;1.00
4637;DHT22;2331;48.806;9.140;2023-03-13T13:00:57;21.40;1.00
4637;DHT22;2331;48.806;9.140;2023-03-13T13:03:30;21.40;1.00
4637;DHT22;2331;48.806;9.140;2023-03-13T13:06:09;21.40;1.00
4637;DHT22;2331;48.806;9.140;2023-03-13T13:08:40;21.60;1.00
4637;DHT22;2331;48.806;9.140;2023-03-13T13:15:02;21.60;1.00
4637;DHT22;2331;48.806;9.140;2023-03-13T13:17:50;21.60;1.00
4637;DHT22;2331;48.806;9.140;2023-03-13T13:23:26;21.70;1.00
4637;DHT22;2331;48.806;9.140;2023-03-13T13:32:46;21.80;1.00
4637;DHT22;2331;48.806;9.140;2023-03-13T13:35:31;21.90;1.00
4637;DHT22;2331;48.806;9.140;2023-03-13T13:38:27;21.90;1.00
4637;DHT22;2331;48.806;9.140;2023-03-13T13:41:00;21.80;1.00
4637;DHT22;2331;48.806;9.140;2023-03-13T13:43:30;21.90;1.00
4637;DHT22;2331;48.806;9.140;2023-03-13T13:46:01;21.90;1.00
4637;DHT22;2331;48.806;9.140;2023-03-13T13:48:32;21.80;1.00
4637;DHT22;2331;48.806;9.140;2023-03-13T13:51:22;21.80;1.00
4637;DHT22;2331;48.806;9.140;2023-03-13T13:53:52;21.70;1.00
4637;DHT22;2331;48.806;9.140;2023-03-13T13:56:38;21.90;1.00
4637;DHT22;2331;48.806;9.140;2023-03-13T13:59:22;21.90;1.00
4637;DHT22;2331;48.806;9.140;2023-03-13T14:01:52;21.90;1.00
4637;DHT22;2331;48.806;9.140;2023-03-13T14:04:36;22.00;1.00
4637;DHT22;2331;48.806;9.140;2023-03-13T14:07:05;22.00;1.00
4637;DHT22;2331;48.806;9.140;2023-03-13T14:09:34;22.20;1.00
4637;DHT22;2331;48.806;9.140;2023-03-13T14:12:24;22.10;1.00
4637;DHT22;2331;48.806;9.140;2023-03-13T14:15:06;22.10;1.00
4637;DHT22;2331;48.806;9.140;2023-03-13T14:17:38;22.10;1.00
4637;DHT22;2331;48.806;9.140;2023-03-13T14:20:24;22.20;1.00
4637;DHT22;2331;48.806;9.140;2023-03-13T14:22:53;22.20;1.00
4637;DHT22;2331;48.806;9.140;2023-03-13T14:25:21;22.30;1.00
4637;DHT22;2331;48.806;9.140;2023-03-13T14:27:48;22.20;1.00
4637;DHT22;2331;48.806;9.140;2023-03-13T14:30:17;22.20;1.00
4637;DHT22;2331;48.806;9.140;2023-03-13T14:32:45;22.30;1.00
4637;DHT22;2331;48.806;9.140;2023-03-13T14:35:16;22.20;1.00
4637;DHT22;2331;48.806;9.140;2023-03-13T14:37:44;22.20;1.00
4637;DHT22;2331;48.806;9.140;2023-03-13T14:40:20;22.20;1.00
4637;DHT22;2331;48.806;9.140;2023-03-13T14:42:50;22.30;1.00
4637;DHT22;2331;48.806;9.140;2023-03-13T14:45:22;22.30;1.00
4637;DHT22;2331;48.806;9.140;2023-03-13T14:47:50;22.20;1.00
4637;DHT22;2331;48.806;9.140;2023-03-13T14:50:21;22.30;1.00
4637;DHT22;2331;48.806;9.140;2023-03-13T14:52:50;22.20;1.00
4637;DHT22;2331;48.806;9.140;2023-03-13T14:55:41;22.20;1.00
4637;DHT22;2331;48.806;9.140;2023-03-13T14:58:25;22.20;1.00
4637;DHT22;2331;48.806;9.140;2023-03-13T15:00:53;22.20;1.00
4637;DHT22;2331;48.806;9.140;2023-03-13T15:03:30;22.30;1.00
4637;DHT22;2331;48.806;9.140;2023-03-13T15:06:14;22.20;1.00
4637;DHT22;2331;48.806;9.140;2023-03-13T15:08:43;22.20;1.00
4637;DHT22;2331;48.806;9.140;2023-03-13T15:11:24;22.10;1.00
4637;DHT22;2331;48.806;9.140;2023-03-13T15:13:51;22.10;1.00
4637;DHT22;2331;48.806;9.140;2023-03-13T15:16:20;22.10;1.00
4637;DHT22;2331;48.806;9.140;2023-03-13T15:18:47;22.10;1.00
4637;DHT22;2331;48.806;9.140;2023-03-13T15:21:22;22.10;1.00
4637;DHT22;2331;48.806;9.140;2023-03-13T15:23:51;22.10;1.00
4637;DHT22;2331;48.806;9.140;2023-03-13T15:26:19;22.10;1.00
4637;DHT22;2331;48.806;9.140;2023-03-13T15:28:45;22.20;1.00
4637;DHT22;2331;48.806;9.140;2023-03-13T15:31:12;22.20;1.00
4637;DHT22;2331;48.806;9.140;2023-03-13T15:33:40;22.20;1.00
4637;DHT22;2331;48.806;9.140;2023-03-13T15:36:08;22.20;1.00
4637;DHT22;2331;48.806;9.140;2023-03-13T15:38:36;22.10;1.00
4637;DHT22;2331;48.806;9.140;2023-03-13T15:41:04;22.10;1.00
4637;DHT22;2331;48.806;9.140;2023-03-13T15:43:31;22.10;1.00
4637;DHT22;2331;48.806;9.140;2023-03-13T15:45:58;22.10;1.00
4637;DHT22;2331;48.806;9.140;2023-03-13T15:48:28;22.10;1.00
4637;DHT22;2331;48.806;9.140;2023-03-13T15:50:57;22.20;1.00
4637;DHT22;2331;48.806;9.140;2023-03-13T15:53:26;22.20;1.00
4637;DHT22;2331;48.806;9.140;2023-03-13T15:55:57;22.20;1.00
4637;DHT22;2331;48.806;9.140;2023-03-13T15:58:25;22.20;1.00
4637;DHT22;2331;48.806;9.140;2023-03-13T16:00:53;22.30;1.00
4637;DHT22;2331;48.806;9.140;2023-03-13T16:03:21;22.40;1.00
4637;DHT22;2331;48.806;9.140;2023-03-13T16:05:49;22.30;1.00
4637;DHT22;2331;48.806;9.140;2023-03-13T16:08:18;22.40;1.00
4637;DHT22;2331;48.806;9.140;2023-03-13T16:10:45;22.30;1.00
4637;DHT22;2331;48.806;9.140;2023-03-13T16:13:13;22.30;1.00
4637;DHT22;2331;48.806;9.140;2023-03-13T16:15:40;22.20;1.00
4637;DHT22;2331;48.806;9.140;2023-03-13T16:18:09;22.30;1.00
4637;DHT22;2331;48.806;9.140;2023-03-13T16:20:39;22.20;1.00
4637;DHT22;2331;48.806;9.140;2023-03-13T16:23:05;22.20;1.00
4637;DHT22;2331;48.806;9.140;2023-03-13T16:25:38;22.20;1.00
4637;DHT22;2331;48.806;9.140;2023-03-13T16:28:05;22.20;1.00
4637;DHT22;2331;48.806;9.140;2023-03-13T16:30:34;22.20;1.00
4637;DHT22;2331;48.806;9.140;2023-03-13T16:33:01;22.20;1.00
4637;DHT22;2331;48.806;9.140;2023-03-13T16:35:27;22.10;1.00
4637;DHT22;2331;48.806;9.140;2023-03-13T16:37:55;22.10;1.00
4637;DHT22;2331;48.806;9.140;2023-03-13T16:40:23;22.10;1.00
4637;DHT22;2331;48.806;9.140;2023-03-13T16:42:50;22.10;1.00
4637;DHT22;2331;48.806;9.140;2023-03-13T16:45:17;22.20;1.00
4637;DHT22;2331;48.806;9.140;2023-03-13T16:47:45;22.10;1.00
4637;DHT22;2331;48.806;9.140;2023-03-13T16:50:18;22.10;1.00
4637;DHT22;2331;48.806;9.140;2023-03-13T16:52:46;22.00;1.00